Birchwood, Wisconsin
Current Conditions -  °F | °C
As of 11:55 AM on Sunday 21 Dec 2014 (Local Time) from KRPD Reporting Station
Light Snow Light Snow  
Wind Chill: 24°   Ceiling: 300
Heat Index: 32°   Visibility: 0.75mi
Dew Point: 32°   Wind: 9mph
Humidity: 99%   Direction: 130°SE
Pressure: 29.89"   Gusts: NA
Location:  45.67°N, 91.56°W
Report Text: KRPD 211755Z AUTO 13008KT 3/4SM -SN OVC003 00/00 A2989 RMK AO2 P0002 60002 T00001001 10000 21010
Loading
Personal Weather Stations






























Interactive Weather Map New forecast layout! Learn more

10-Day Weather Forecast

Advertisements
Track Severe Weather on mobile